Time;durP1;ratioP1;P1;durP2;ratioP2;P2;SDS_P1;SDS_P2;PMS_P1;PMS_P2;Temp;Humidity;BMP_temperature;BMP_pressure;BME280_temperature;BME280_humidity;BME280_pressure;Samples;Min_cycle;Max_cycle;Signal;HPM_P1;HPM_P2
2023/08/06 00:00:12;;;;;;;;;;;24.10;55.50;;;;;;3059177;19;5100;-77
2023/08/06 00:01:12;;;;;;;;;;;24.10;55.60;;;;;;3058559;19;5241;-77
2023/08/06 00:02:13;;;;;;;;;;;24.10;55.60;;;;;;3059188;19;5151;-78
2023/08/06 00:03:14;;;;;;;;;;;24.10;55.50;;;;;;3058590;19;5115;-77
2023/08/06 00:04:14;;;;;;;;;;;24.10;55.60;;;;;;3058017;19;5444;-77
2023/08/06 00:05:20;;;;;;;;;;;24.10;55.80;;;;;;3058613;19;4528;-78
2023/08/06 00:06:21;;;;;;;;;;;24.10;55.50;;;;;;3057806;19;5184;-78
2023/08/06 00:07:21;;;;;;;;;;;24.10;55.70;;;;;;3058837;19;4965;-79
2023/08/06 00:08:22;;;;;;;;;;;24.10;55.60;;;;;;3058365;19;5207;-78
2023/08/06 00:09:23;;;;;;;;;;;24.10;55.70;;;;;;3058091;19;5276;-77
2023/08/06 00:10:23;;;;;;;;;;;24.30;55.90;;;;;;3057832;19;4898;-77
2023/08/06 00:11:24;;;;;;;;;;;24.10;55.70;;;;;;3057914;19;5248;-78
2023/08/06 00:12:25;;;;;;;;;;;24.10;55.80;;;;;;3058431;19;5317;-78
2023/08/06 00:13:25;;;;;;;;;;;24.10;56.20;;;;;;3058321;19;5137;-77
2023/08/06 00:14:26;;;;;;;;;;;24.10;55.90;;;;;;3057512;19;5195;-78
2023/08/06 00:15:26;;;;;;;;;;;24.10;55.80;;;;;;3058125;19;5223;-78
2023/08/06 00:16:27;;;;;;;;;;;24.10;55.90;;;;;;3058262;19;5281;-77
2023/08/06 00:17:28;;;;;;;;;;;24.10;55.80;;;;;;3057750;19;5144;-79
2023/08/06 00:18:28;;;;;;;;;;;24.10;55.90;;;;;;3057430;19;5233;-78
2023/08/06 00:19:29;;;;;;;;;;;24.10;55.90;;;;;;3056524;19;5243;-77
2023/08/06 00:20:30;;;;;;;;;;;24.10;55.80;;;;;;3034754;19;4693;-77
2023/08/06 00:21:30;;;;;;;;;;;24.10;55.90;;;;;;3055658;19;5130;-78
2023/08/06 00:22:32;;;;;;;;;;;24.10;55.90;;;;;;3056341;19;4779;-77
2023/08/06 00:23:32;;;;;;;;;;;24.10;55.90;;;;;;3057216;19;5163;-77
2023/08/06 00:24:35;;;;;;;;;;;24.10;55.90;;;;;;3057190;19;4798;-78
2023/08/06 00:25:36;;;;;;;;;;;24.10;55.90;;;;;;3057561;19;5117;-80
2023/08/06 00:26:37;;;;;;;;;;;24.10;56.00;;;;;;3058003;19;5299;-77
2023/08/06 00:27:38;;;;;;;;;;;24.10;56.00;;;;;;3057833;19;5676;-77
2023/08/06 00:28:39;;;;;;;;;;;24.10;56.00;;;;;;3057381;19;5226;-78
2023/08/06 00:29:39;;;;;;;;;;;24.10;55.90;;;;;;3056836;19;4718;-78
2023/08/06 00:30:40;;;;;;;;;;;24.00;56.10;;;;;;3056914;19;5531;-77
2023/08/06 00:31:40;;;;;;;;;;;24.00;56.00;;;;;;3058431;19;5237;-78
2023/08/06 00:32:41;;;;;;;;;;;24.10;56.00;;;;;;3057514;19;5124;-78
2023/08/06 00:33:42;;;;;;;;;;;24.10;56.10;;;;;;3057312;19;5067;-78
2023/08/06 00:34:42;;;;;;;;;;;24.10;56.00;;;;;;3058873;19;5223;-78
2023/08/06 00:35:43;;;;;;;;;;;24.10;56.10;;;;;;3057875;19;5180;-78
2023/08/06 00:36:45;;;;;;;;;;;24.10;56.10;;;;;;3057691;19;4702;-78
2023/08/06 00:37:47;;;;;;;;;;;24.00;56.00;;;;;;3056826;19;5354;-78
2023/08/06 00:38:48;;;;;;;;;;;24.00;56.00;;;;;;3056388;19;5940;-77
2023/08/06 00:39:48;;;;;;;;;;;24.00;55.90;;;;;;3058806;19;5356;-77
2023/08/06 00:40:50;;;;;;;;;;;24.00;56.00;;;;;;3057267;19;5205;-78
2023/08/06 00:41:52;;;;;;;;;;;24.00;56.00;;;;;;3057832;19;5180;-78
2023/08/06 00:42:52;;;;;;;;;;;24.00;56.00;;;;;;3058042;19;4783;-78
2023/08/06 00:43:53;;;;;;;;;;;24.00;55.90;;;;;;3056729;19;5142;-78
2023/08/06 00:44:53;;;;;;;;;;;24.00;55.90;;;;;;3057763;19;5060;-78
2023/08/06 00:45:54;;;;;;;;;;;24.00;56.00;;;;;;3056910;19;5078;-78
2023/08/06 00:46:55;;;;;;;;;;;24.00;56.00;;;;;;3056689;19;5385;-76
2023/08/06 00:47:56;;;;;;;;;;;24.00;56.10;;;;;;3056182;19;5245;-76
2023/08/06 00:48:56;;;;;;;;;;;24.10;56.00;;;;;;3055230;19;5110;-77
2023/08/06 00:49:57;;;;;;;;;;;24.00;56.00;;;;;;3056034;19;5229;-78
2023/08/06 00:50:58;;;;;;;;;;;23.90;56.00;;;;;;3056292;19;4965;-78
2023/08/06 00:51:58;;;;;;;;;;;24.00;55.90;;;;;;3055557;19;5113;-79
2023/08/06 00:52:59;;;;;;;;;;;24.10;56.00;;;;;;3053711;19;5386;-72
2023/08/06 00:53:59;;;;;;;;;;;24.00;55.90;;;;;;3053736;19;5076;-72
2023/08/06 00:55:00;;;;;;;;;;;23.80;55.70;;;;;;3054756;19;5179;-72
2023/08/06 00:56:01;;;;;;;;;;;23.90;55.90;;;;;;3053864;19;5209;-72
2023/08/06 00:57:02;;;;;;;;;;;24.00;56.00;;;;;;3053807;19;5201;-72
2023/08/06 00:58:03;;;;;;;;;;;24.00;56.10;;;;;;3052843;19;4872;-71
2023/08/06 00:59:04;;;;;;;;;;;24.00;56.10;;;;;;3052833;19;5194;-72
2023/08/06 01:00:06;;;;;;;;;;;23.90;55.90;;;;;;3053894;19;4660;-72
2023/08/06 01:01:06;;;;;;;;;;;24.00;56.00;;;;;;3053448;19;5228;-74
2023/08/06 01:02:07;;;;;;;;;;;23.90;55.90;;;;;;3053085;19;4681;-74
2023/08/06 01:03:08;;;;;;;;;;;23.90;56.00;;;;;;3051472;19;3421;-29
